sensor_id;sensor_type;location;lat;lon;timestamp;temperature;humidity
30097;DHT22;16915;51.466;3.610;2022-10-16T09:07:32;14.50;99.90
30097;DHT22;16915;51.466;3.610;2022-10-16T09:13:17;14.90;99.90
30097;DHT22;16915;51.466;3.610;2022-10-16T09:21:55;15.40;99.90
30097;DHT22;16915;51.466;3.610;2022-10-16T09:24:24;15.50;99.90
30097;DHT22;16915;51.466;3.610;2022-10-16T09:26:50;15.70;99.90
30097;DHT22;16915;51.466;3.610;2022-10-16T09:29:17;15.80;99.90
30097;DHT22;16915;51.466;3.610;2022-10-16T09:31:45;16.00;99.90
30097;DHT22;16915;51.466;3.610;2022-10-16T09:34:32;16.20;99.90
30097;DHT22;16915;51.466;3.610;2022-10-16T09:36:59;16.30;99.90
30097;DHT22;16915;51.466;3.610;2022-10-16T09:39:25;16.50;99.90
30097;DHT22;16915;51.466;3.610;2022-10-16T09:41:57;16.60;99.90
30097;DHT22;16915;51.466;3.610;2022-10-16T09:44:30;16.70;99.90
30097;DHT22;16915;51.466;3.610;2022-10-16T09:47:15;16.70;99.90
30097;DHT22;16915;51.466;3.610;2022-10-16T09:52:19;17.20;99.90
30097;DHT22;16915;51.466;3.610;2022-10-16T09:55:12;17.30;99.90
30097;DHT22;16915;51.466;3.610;2022-10-16T09:57:52;17.70;99.90
30097;DHT22;16915;51.466;3.610;2022-10-16T10:00:18;18.20;99.90
30097;DHT22;16915;51.466;3.610;2022-10-16T10:02:44;18.60;99.90
30097;DHT22;16915;51.466;3.610;2022-10-16T10:05:29;19.00;99.90
30097;DHT22;16915;51.466;3.610;2022-10-16T10:07:57;19.30;99.90
30097;DHT22;16915;51.466;3.610;2022-10-16T10:10:34;19.50;99.90
30097;DHT22;16915;51.466;3.610;2022-10-16T10:13:02;19.80;99.90
30097;DHT22;16915;51.466;3.610;2022-10-16T10:15:33;19.70;99.90
30097;DHT22;16915;51.466;3.610;2022-10-16T10:17:58;19.80;99.90
30097;DHT22;16915;51.466;3.610;2022-10-16T10:22:54;20.10;99.90
30097;DHT22;16915;51.466;3.610;2022-10-16T10:28:17;20.70;99.90
30097;DHT22;16915;51.466;3.610;2022-10-16T10:31:12;20.50;99.90
30097;DHT22;16915;51.466;3.610;2022-10-16T10:36:38;21.00;99.90
30097;DHT22;16915;51.466;3.610;2022-10-16T10:42:18;20.80;99.90
30097;DHT22;16915;51.466;3.610;2022-10-16T10:45:24;20.30;99.90
30097;DHT22;16915;51.466;3.610;2022-10-16T10:50:45;19.70;99.90
30097;DHT22;16915;51.466;3.610;2022-10-16T10:53:29;19.40;99.90
30097;DHT22;16915;51.466;3.610;2022-10-16T10:58:49;19.70;99.90
30097;DHT22;16915;51.466;3.610;2022-10-16T11:01:26;20.20;99.90
30097;DHT22;16915;51.466;3.610;2022-10-16T11:06:50;22.10;99.90
30097;DHT22;16915;51.466;3.610;2022-10-16T11:09:26;22.90;99.90
30097;DHT22;16915;51.466;3.610;2022-10-16T11:12:26;23.40;99.90
30097;DHT22;16915;51.466;3.610;2022-10-16T11:15:23;23.50;99.90
30097;DHT22;16915;51.466;3.610;2022-10-16T11:17:52;23.50;99.90
30097;DHT22;16915;51.466;3.610;2022-10-16T11:20:28;23.40;99.90
30097;DHT22;16915;51.466;3.610;2022-10-16T11:23:55;24.00;99.90
30097;DHT22;16915;51.466;3.610;2022-10-16T11:26:23;24.80;99.90
30097;DHT22;16915;51.466;3.610;2022-10-16T11:28:53;25.30;99.90
30097;DHT22;16915;51.466;3.610;2022-10-16T11:31:34;25.40;99.90
30097;DHT22;16915;51.466;3.610;2022-10-16T11:34:25;24.70;99.90
30097;DHT22;16915;51.466;3.610;2022-10-16T11:39:33;23.10;99.90
30097;DHT22;16915;51.466;3.610;2022-10-16T11:45:13;21.70;99.90
30097;DHT22;16915;51.466;3.610;2022-10-16T11:47:54;20.80;99.90
30097;DHT22;16915;51.466;3.610;2022-10-16T11:50:53;20.00;99.90
30097;DHT22;16915;51.466;3.610;2022-10-16T11:56:05;18.90;99.90
30097;DHT22;16915;51.466;3.610;2022-10-16T11:58:32;19.00;99.90
30097;DHT22;16915;51.466;3.610;2022-10-16T12:03:40;19.40;99.90
30097;DHT22;16915;51.466;3.610;2022-10-16T12:06:37;19.30;99.90
30097;DHT22;16915;51.466;3.610;2022-10-16T12:09:05;19.40;99.90
30097;DHT22;16915;51.466;3.610;2022-10-16T12:11:37;19.60;99.90
30097;DHT22;16915;51.466;3.610;2022-10-16T12:17:02;20.60;99.90
30097;DHT22;16915;51.466;3.610;2022-10-16T12:19:29;20.70;99.90
30097;DHT22;16915;51.466;3.610;2022-10-16T12:22:00;20.50;99.90
30097;DHT22;16915;51.466;3.610;2022-10-16T12:24:36;20.00;99.90
30097;DHT22;16915;51.466;3.610;2022-10-16T12:27:05;19.60;99.90
30097;DHT22;16915;51.466;3.610;2022-10-16T12:29:39;19.30;99.90
30097;DHT22;16915;51.466;3.610;2022-10-16T12:32:22;19.00;99.90
30097;DHT22;16915;51.466;3.610;2022-10-16T12:34:50;18.70;99.90
30097;DHT22;16915;51.466;3.610;2022-10-16T12:37:22;18.50;99.90
30097;DHT22;16915;51.466;3.610;2022-10-16T12:39:52;18.30;99.90
30097;DHT22;16915;51.466;3.610;2022-10-16T12:44:53;18.20;99.90
30097;DHT22;16915;51.466;3.610;2022-10-16T12:47:35;18.30;99.90
30097;DHT22;16915;51.466;3.610;2022-10-16T12:50:26;18.40;99.90
30097;DHT22;16915;51.466;3.610;2022-10-16T12:52:52;18.70;99.90
30097;DHT22;16915;51.466;3.610;2022-10-16T12:55:19;19.00;99.90
30097;DHT22;16915;51.466;3.610;2022-10-16T12:58:02;19.60;99.90
30097;DHT22;16915;51.466;3.610;2022-10-16T13:00:47;20.50;99.90
30097;DHT22;16915;51.466;3.610;2022-10-16T13:06:25;21.80;99.90
30097;DHT22;16915;51.466;3.610;2022-10-16T13:09:04;21.90;99.90
30097;DHT22;16915;51.466;3.610;2022-10-16T13:14:55;21.90;99.90
30097;DHT22;16915;51.466;3.610;2022-10-16T13:18:19;21.70;99.90
30097;DHT22;16915;51.466;3.610;2022-10-16T13:21:00;21.50;99.90
30097;DHT22;16915;51.466;3.610;2022-10-16T13:29:03;20.90;99.90
30097;DHT22;16915;51.466;3.610;2022-10-16T13:31:30;21.00;99.90
30097;DHT22;16915;51.466;3.610;2022-10-16T13:33:58;21.10;99.90
30097;DHT22;16915;51.466;3.610;2022-10-16T13:36:42;20.90;99.90
30097;DHT22;16915;51.466;3.610;2022-10-16T13:39:13;20.70;99.90
30097;DHT22;16915;51.466;3.610;2022-10-16T13:41:43;20.50;99.90
30097;DHT22;16915;51.466;3.610;2022-10-16T13:44:19;20.40;99.90
30097;DHT22;16915;51.466;3.610;2022-10-16T13:46:46;20.40;99.90
30097;DHT22;16915;51.466;3.610;2022-10-16T13:49:16;20.40;99.90
30097;DHT22;16915;51.466;3.610;2022-10-16T13:51:55;20.40;99.90
30097;DHT22;16915;51.466;3.610;2022-10-16T13:54:21;20.20;99.90
30097;DHT22;16915;51.466;3.610;2022-10-16T13:56:46;20.10;99.90
30097;DHT22;16915;51.466;3.610;2022-10-16T13:59:34;20.10;99.90
30097;DHT22;16915;51.466;3.610;2022-10-16T14:02:04;20.10;99.90
30097;DHT22;16915;51.466;3.610;2022-10-16T14:04:32;20.20;99.90
30097;DHT22;16915;51.466;3.610;2022-10-16T14:06:58;20.10;99.90
30097;DHT22;16915;51.466;3.610;2022-10-16T14:09:26;20.10;99.90
30097;DHT22;16915;51.466;3.610;2022-10-16T14:12:00;20.00;99.90
30097;DHT22;16915;51.466;3.610;2022-10-16T14:14:40;20.00;99.90
30097;DHT22;16915;51.466;3.610;2022-10-16T14:17:06;19.80;99.90
30097;DHT22;16915;51.466;3.610;2022-10-16T14:19:34;19.60;99.90
30097;DHT22;16915;51.466;3.610;2022-10-16T14:22:01;19.50;99.90
30097;DHT22;16915;51.466;3.610;2022-10-16T14:26:56;19.40;99.90
30097;DHT22;16915;51.466;3.610;2022-10-16T14:29:23;19.20;99.90
30097;DHT22;16915;51.466;3.610;2022-10-16T14:32:06;19.00;99.90
30097;DHT22;16915;51.466;3.610;2022-10-16T14:34:53;19.00;99.90
30097;DHT22;16915;51.466;3.610;2022-10-16T14:37:27;18.90;99.90
30097;DHT22;16915;51.466;3.610;2022-10-16T14:39:53;18.90;99.90
30097;DHT22;16915;51.466;3.610;2022-10-16T14:42:28;18.80;99.90
30097;DHT22;16915;51.466;3.610;2022-10-16T14:44:56;18.80;99.90
30097;DHT22;16915;51.466;3.610;2022-10-16T14:47:24;18.70;99.90
30097;DHT22;16915;51.466;3.610;2022-10-16T14:49:52;18.60;99.90
30097;DHT22;16915;51.466;3.610;2022-10-16T14:52:20;18.50;99.90
30097;DHT22;16915;51.466;3.610;2022-10-16T14:54:52;18.50;99.90
30097;DHT22;16915;51.466;3.610;2022-10-16T14:57:23;18.50;99.90
30097;DHT22;16915;51.466;3.610;2022-10-16T14:59:49;18.40;99.90
30097;DHT22;16915;51.466;3.610;2022-10-16T15:04:45;18.30;99.90
30097;DHT22;16915;51.466;3.610;2022-10-16T15:07:11;18.20;99.90
30097;DHT22;16915;51.466;3.610;2022-10-16T15:09:36;18.20;99.90
30097;DHT22;16915;51.466;3.610;2022-10-16T15:12:02;18.00;99.90
30097;DHT22;16915;51.466;3.610;2022-10-16T15:14:27;17.80;99.90
30097;DHT22;16915;51.466;3.610;2022-10-16T15:16:53;17.70;99.90
30097;DHT22;16915;51.466;3.610;2022-10-16T15:19:18;17.60;99.90
30097;DHT22;16915;51.466;3.610;2022-10-16T15:21:44;17.50;99.90
30097;DHT22;16915;51.466;3.610;2022-10-16T15:24:12;17.50;99.90
30097;DHT22;16915;51.466;3.610;2022-10-16T15:26:39;17.50;99.90
30097;DHT22;16915;51.466;3.610;2022-10-16T15:29:04;17.50;99.90
30097;DHT22;16915;51.466;3.610;2022-10-16T15:31:30;17.40;99.90
30097;DHT22;16915;51.466;3.610;2022-10-16T15:33:56;17.40;99.90
30097;DHT22;16915;51.466;3.610;2022-10-16T15:36:48;17.40;99.90
30097;DHT22;16915;51.466;3.610;2022-10-16T15:39:19;17.30;99.90
30097;DHT22;16915;51.466;3.610;2022-10-16T15:41:47;17.30;99.90
30097;DHT22;16915;51.466;3.610;2022-10-16T15:44:19;17.30;99.90
30097;DHT22;16915;51.466;3.610;2022-10-16T15:46:45;17.30;99.90
30097;DHT22;16915;51.466;3.610;2022-10-16T15:49:11;17.30;99.90
30097;DHT22;16915;51.466;3.610;2022-10-16T15:51:41;17.30;99.90
30097;DHT22;16915;51.466;3.610;2022-10-16T15:54:10;17.30;99.90
30097;DHT22;16915;51.466;3.610;2022-10-16T15:56:35;17.20;99.90
30097;DHT22;16915;51.466;3.610;2022-10-16T15:59:02;17.20;99.90
30097;DHT22;16915;51.466;3.610;2022-10-16T16:01:34;17.10;99.90
30097;DHT22;16915;51.466;3.610;2022-10-16T16:04:00;17.10;99.90
30097;DHT22;16915;51.466;3.610;2022-10-16T16:06:26;17.10;99.90
30097;DHT22;16915;51.466;3.610;2022-10-16T16:08:52;17.10;99.90
30097;DHT22;16915;51.466;3.610;2022-10-16T16:11:19;17.00;99.90
30097;DHT22;16915;51.466;3.610;2022-10-16T16:13:45;17.00;99.90
30097;DHT22;16915;51.466;3.610;2022-10-16T16:16:15;17.00;99.90
30097;DHT22;16915;51.466;3.610;2022-10-16T16:18:42;16.90;99.90
30097;DHT22;16915;51.466;3.610;2022-10-16T16:21:10;16.90;99.90
30097;DHT22;16915;51.466;3.610;2022-10-16T16:23:36;16.80;99.90
30097;DHT22;16915;51.466;3.610;2022-10-16T16:26:12;16.80;99.90
30097;DHT22;16915;51.466;3.610;2022-10-16T16:28:39;16.80;99.90
30097;DHT22;16915;51.466;3.610;2022-10-16T16:31:05;16.70;99.90
30097;DHT22;16915;51.466;3.610;2022-10-16T16:33:31;16.70;99.90
30097;DHT22;16915;51.466;3.610;2022-10-16T16:36:02;16.70;99.90
30097;DHT22;16915;51.466;3.610;2022-10-16T16:38:28;16.70;99.90
30097;DHT22;16915;51.466;3.610;2022-10-16T16:40:54;16.70;99.90
30097;DHT22;16915;51.466;3.610;2022-10-16T16:43:26;16.70;99.90
30097;DHT22;16915;51.466;3.610;2022-10-16T16:45:53;16.60;99.90
30097;DHT22;16915;51.466;3.610;2022-10-16T16:48:19;16.60;99.90
30097;DHT22;16915;51.466;3.610;2022-10-16T16:50:45;16.50;99.90
30097;DHT22;16915;51.466;3.610;2022-10-16T16:53:10;16.50;99.90
30097;DHT22;16915;51.466;3.610;2022-10-16T16:55:37;16.50;99.90
30097;DHT22;16915;51.466;3.610;2022-10-16T16:58:03;16.50;99.90
30097;DHT22;16915;51.466;3.610;2022-10-16T17:00:29;16.40;99.90
30097;DHT22;16915;51.466;3.610;2022-10-16T17:02:56;16.40;99.90
30097;DHT22;16915;51.466;3.610;2022-10-16T17:05:23;16.30;99.90
30097;DHT22;16915;51.466;3.610;2022-10-16T17:07:52;16.30;99.90
30097;DHT22;16915;51.466;3.610;2022-10-16T17:10:18;16.30;99.90
30097;DHT22;16915;51.466;3.610;2022-10-16T17:12:43;16.20;99.90
30097;DHT22;16915;51.466;3.610;2022-10-16T17:15:09;16.20;99.90
30097;DHT22;16915;51.466;3.610;2022-10-16T17:17:35;16.10;99.90
30097;DHT22;16915;51.466;3.610;2022-10-16T17:20:01;16.10;99.90
30097;DHT22;16915;51.466;3.610;2022-10-16T17:22:27;16.10;99.90
30097;DHT22;16915;51.466;3.610;2022-10-16T17:24:53;16.00;99.90
30097;DHT22;16915;51.466;3.610;2022-10-16T17:27:19;16.00;99.90
30097;DHT22;16915;51.466;3.610;2022-10-16T17:29:49;16.00;99.90
30097;DHT22;16915;51.466;3.610;2022-10-16T17:32:15;16.00;99.90
30097;DHT22;16915;51.466;3.610;2022-10-16T17:34:40;16.00;99.90
30097;DHT22;16915;51.466;3.610;2022-10-16T17:37:06;16.00;99.90
30097;DHT22;16915;51.466;3.610;2022-10-16T17:39:37;16.00;99.90
30097;DHT22;16915;51.466;3.610;2022-10-16T17:42:03;15.90;99.90
30097;DHT22;16915;51.466;3.610;2022-10-16T17:44:29;15.80;99.90
30097;DHT22;16915;51.466;3.610;2022-10-16T17:46:56;15.90;99.90
30097;DHT22;16915;51.466;3.610;2022-10-16T17:49:22;15.80;99.90
30097;DHT22;16915;51.466;3.610;2022-10-16T17:51:52;15.80;99.90
30097;DHT22;16915;51.466;3.610;2022-10-16T17:54:18;15.70;99.90
30097;DHT22;16915;51.466;3.610;2022-10-16T17:56:54;15.60;99.90
30097;DHT22;16915;51.466;3.610;2022-10-16T17:59:23;15.60;99.90
30097;DHT22;16915;51.466;3.610;2022-10-16T18:01:49;15.50;99.90
30097;DHT22;16915;51.466;3.610;2022-10-16T18:04:16;15.50;99.90
30097;DHT22;16915;51.466;3.610;2022-10-16T18:06:45;15.40;99.90
30097;DHT22;16915;51.466;3.610;2022-10-16T18:09:13;15.40;99.90
30097;DHT22;16915;51.466;3.610;2022-10-16T18:11:40;15.30;99.90
30097;DHT22;16915;51.466;3.610;2022-10-16T18:14:07;15.30;99.90
30097;DHT22;16915;51.466;3.610;2022-10-16T18:16:32;15.20;99.90
30097;DHT22;16915;51.466;3.610;2022-10-16T18:19:05;15.20;99.90
30097;DHT22;16915;51.466;3.610;2022-10-16T18:21:55;15.20;99.90
30097;DHT22;16915;51.466;3.610;2022-10-16T18:24:21;15.20;99.90
30097;DHT22;16915;51.466;3.610;2022-10-16T18:26:58;15.10;99.90
30097;DHT22;16915;51.466;3.610;2022-10-16T18:29:46;15.10;99.90
30097;DHT22;16915;51.466;3.610;2022-10-16T18:32:17;15.10;99.90
30097;DHT22;16915;51.466;3.610;2022-10-16T18:35:30;15.00;99.90
30097;DHT22;16915;51.466;3.610;2022-10-16T18:38:19;15.00;99.90
30097;DHT22;16915;51.466;3.610;2022-10-16T18:41:06;15.00;99.90
30097;DHT22;16915;51.466;3.610;2022-10-16T18:43:38;15.00;99.90
30097;DHT22;16915;51.466;3.610;2022-10-16T18:48:55;15.00;99.90
30097;DHT22;16915;51.466;3.610;2022-10-16T18:51:23;14.80;99.90
30097;DHT22;16915;51.466;3.610;2022-10-16T18:54:29;14.90;99.90
30097;DHT22;16915;51.466;3.610;2022-10-16T18:57:32;14.90;99.90
30097;DHT22;16915;51.466;3.610;2022-10-16T19:00:32;14.90;99.90
30097;DHT22;16915;51.466;3.610;2022-10-16T19:03:04;14.90;99.90
30097;DHT22;16915;51.466;3.610;2022-10-16T19:06:16;14.90;99.90
30097;DHT22;16915;51.466;3.610;2022-10-16T19:09:04;14.90;99.90
30097;DHT22;16915;51.466;3.610;2022-10-16T19:11:47;14.90;99.90
30097;DHT22;16915;51.466;3.610;2022-10-16T19:14:33;14.90;99.90
30097;DHT22;16915;51.466;3.610;2022-10-16T19:17:08;14.90;99.90
30097;DHT22;16915;51.466;3.610;2022-10-16T19:19:39;14.90;99.90
30097;DHT22;16915;51.466;3.610;2022-10-16T19:22:44;15.10;99.90
30097;DHT22;16915;51.466;3.610;2022-10-16T19:25:21;14.90;99.90
30097;DHT22;16915;51.466;3.610;2022-10-16T19:27:59;15.00;99.90
30097;DHT22;16915;51.466;3.610;2022-10-16T19:31:00;15.00;99.90
30097;DHT22;16915;51.466;3.610;2022-10-16T19:34:04;15.00;99.90
30097;DHT22;16915;51.466;3.610;2022-10-16T19:36:56;15.00;99.90
30097;DHT22;16915;51.466;3.610;2022-10-16T19:39:41;15.00;99.90
30097;DHT22;16915;51.466;3.610;2022-10-16T19:42:12;15.10;99.90
30097;DHT22;16915;51.466;3.610;2022-10-16T19:44:59;15.10;99.90
30097;DHT22;16915;51.466;3.610;2022-10-16T19:47:46;15.20;99.90
30097;DHT22;16915;51.466;3.610;2022-10-16T19:50:36;15.20;99.90
30097;DHT22;16915;51.466;3.610;2022-10-16T19:53:47;15.30;99.90
30097;DHT22;16915;51.466;3.610;2022-10-16T19:56:40;15.20;99.90
30097;DHT22;16915;51.466;3.610;2022-10-16T19:59:37;15.30;99.90
30097;DHT22;16915;51.466;3.610;2022-10-16T20:02:07;15.30;99.90
30097;DHT22;16915;51.466;3.610;2022-10-16T20:07:21;15.30;99.90
30097;DHT22;16915;51.466;3.610;2022-10-16T20:09:49;15.20;99.90
30097;DHT22;16915;51.466;3.610;2022-10-16T20:12:23;15.20;99.90
30097;DHT22;16915;51.466;3.610;2022-10-16T20:14:49;15.20;99.90
30097;DHT22;16915;51.466;3.610;2022-10-16T20:17:15;15.20;99.90
30097;DHT22;16915;51.466;3.610;2022-10-16T20:19:51;15.20;99.90
30097;DHT22;16915;51.466;3.610;2022-10-16T20:25:36;15.20;99.90
30097;DHT22;16915;51.466;3.610;2022-10-16T20:29:25;15.30;99.90
30097;DHT22;16915;51.466;3.610;2022-10-16T20:32:17;15.10;99.90
30097;DHT22;16915;51.466;3.610;2022-10-16T20:35:18;15.10;99.90
30097;DHT22;16915;51.466;3.610;2022-10-16T20:38:47;15.00;99.90
30097;DHT22;16915;51.466;3.610;2022-10-16T20:42:21;15.00;99.90
30097;DHT22;16915;51.466;3.610;2022-10-16T20:44:56;14.90;99.90
30097;DHT22;16915;51.466;3.610;2022-10-16T20:48:34;15.00;99.90
30097;DHT22;16915;51.466;3.610;2022-10-16T20:52:19;15.00;99.90
30097;DHT22;16915;51.466;3.610;2022-10-16T20:55:56;15.00;99.90
30097;DHT22;16915;51.466;3.610;2022-10-16T20:59:25;15.00;99.90
30097;DHT22;16915;51.466;3.610;2022-10-16T21:03:16;15.00;99.90
30097;DHT22;16915;51.466;3.610;2022-10-16T21:06:50;15.10;99.90
30097;DHT22;16915;51.466;3.610;2022-10-16T21:10:20;15.10;99.90
30097;DHT22;16915;51.466;3.610;2022-10-16T21:13:26;15.10;99.90
30097;DHT22;16915;51.466;3.610;2022-10-16T21:19:53;15.00;99.90
30097;DHT22;16915;51.466;3.610;2022-10-16T21:23:22;15.00;99.90
30097;DHT22;16915;51.466;3.610;2022-10-16T21:26:42;15.00;99.90
30097;DHT22;16915;51.466;3.610;2022-10-16T21:30:16;15.10;99.90
30097;DHT22;16915;51.466;3.610;2022-10-16T21:33:45;15.10;99.90
30097;DHT22;16915;51.466;3.610;2022-10-16T21:37:21;15.20;99.90
30097;DHT22;16915;51.466;3.610;2022-10-16T21:41:17;15.20;99.90
30097;DHT22;16915;51.466;3.610;2022-10-16T21:44:37;15.20;99.90
30097;DHT22;16915;51.466;3.610;2022-10-16T21:48:04;15.20;99.90
30097;DHT22;16915;51.466;3.610;2022-10-16T21:51:44;15.20;99.90
30097;DHT22;16915;51.466;3.610;2022-10-16T21:55:16;15.20;99.90
30097;DHT22;16915;51.466;3.610;2022-10-16T21:58:36;15.20;99.90
30097;DHT22;16915;51.466;3.610;2022-10-16T22:01:29;15.20;99.90
30097;DHT22;16915;51.466;3.610;2022-10-16T22:03:56;15.20;99.90
30097;DHT22;16915;51.466;3.610;2022-10-16T22:06:54;15.10;99.90
30097;DHT22;16915;51.466;3.610;2022-10-16T22:09:45;15.00;99.90
30097;DHT22;16915;51.466;3.610;2022-10-16T22:12:53;15.00;99.90
30097;DHT22;16915;51.466;3.610;2022-10-16T22:16:03;15.00;99.90
30097;DHT22;16915;51.466;3.610;2022-10-16T22:19:22;14.90;99.90
30097;DHT22;16915;51.466;3.610;2022-10-16T22:22:42;14.90;99.90
30097;DHT22;16915;51.466;3.610;2022-10-16T22:25:45;14.90;99.90
30097;DHT22;16915;51.466;3.610;2022-10-16T22:28:38;14.90;99.90
30097;DHT22;16915;51.466;3.610;2022-10-16T22:31:14;14.80;99.90
30097;DHT22;16915;51.466;3.610;2022-10-16T22:34:48;14.80;99.90
30097;DHT22;16915;51.466;3.610;2022-10-16T22:37:26;14.70;99.90
30097;DHT22;16915;51.466;3.610;2022-10-16T22:40:53;14.60;99.90
30097;DHT22;16915;51.466;3.610;2022-10-16T22:43:39;14.50;99.90
30097;DHT22;16915;51.466;3.610;2022-10-16T22:46:46;14.50;99.90
30097;DHT22;16915;51.466;3.610;2022-10-16T22:50:15;14.50;99.90
30097;DHT22;16915;51.466;3.610;2022-10-16T22:53:48;14.60;99.90
30097;DHT22;16915;51.466;3.610;2022-10-16T22:56:45;14.60;99.90
30097;DHT22;16915;51.466;3.610;2022-10-16T22:59:43;14.70;99.90
30097;DHT22;16915;51.466;3.610;2022-10-16T23:02:56;14.80;99.90
30097;DHT22;16915;51.466;3.610;2022-10-16T23:06:14;14.90;99.90
30097;DHT22;16915;51.466;3.610;2022-10-16T23:09:27;14.80;99.90
30097;DHT22;16915;51.466;3.610;2022-10-16T23:13:09;15.00;99.90
30097;DHT22;16915;51.466;3.610;2022-10-16T23:16:34;14.80;99.90
30097;DHT22;16915;51.466;3.610;2022-10-16T23:19:42;14.80;99.90
30097;DHT22;16915;51.466;3.610;2022-10-16T23:22:37;14.80;99.90
30097;DHT22;16915;51.466;3.610;2022-10-16T23:25:34;14.70;99.90
30097;DHT22;16915;51.466;3.610;2022-10-16T23:28:30;14.70;99.90
30097;DHT22;16915;51.466;3.610;2022-10-16T23:32:03;14.70;99.90
30097;DHT22;16915;51.466;3.610;2022-10-16T23:35:30;14.60;99.90
30097;DHT22;16915;51.466;3.610;2022-10-16T23:38:16;14.60;99.90
30097;DHT22;16915;51.466;3.610;2022-10-16T23:41:12;14.60;99.90
30097;DHT22;16915;51.466;3.610;2022-10-16T23:43:50;14.60;99.90
30097;DHT22;16915;51.466;3.610;2022-10-16T23:46:19;14.60;99.90
30097;DHT22;16915;51.466;3.610;2022-10-16T23:49:23;14.80;99.90
30097;DHT22;16915;51.466;3.610;2022-10-16T23:52:33;14.60;99.90
30097;DHT22;16915;51.466;3.610;2022-10-16T23:55:29;14.60;99.90
30097;DHT22;16915;51.466;3.610;2022-10-16T23:58:40;14.60;99.90
